sensor_id;sensor_type;location;lat;lon;timestamp;P1;durP1;ratioP1;P2;durP2;ratioP2
19691;SDS011;42748;50.016;19.890;2022-11-20T00:01:27;124.33;;;46.10;;
19691;SDS011;42748;50.016;19.890;2022-11-20T00:03:55;124.00;;;47.13;;
19691;SDS011;42748;50.016;19.890;2022-11-20T00:06:24;118.33;;;45.50;;
19691;SDS011;42748;50.016;19.890;2022-11-20T00:08:53;128.53;;;45.73;;
19691;SDS011;42748;50.016;19.890;2022-11-20T00:11:23;113.47;;;44.53;;
19691;SDS011;42748;50.016;19.890;2022-11-20T00:13:53;119.73;;;44.83;;
19691;SDS011;42748;50.016;19.890;2022-11-20T00:16:23;117.50;;;45.60;;
19691;SDS011;42748;50.016;19.890;2022-11-20T00:18:53;114.33;;;44.30;;
19691;SDS011;42748;50.016;19.890;2022-11-20T00:21:24;123.47;;;45.07;;
19691;SDS011;42748;50.016;19.890;2022-11-20T00:23:53;115.70;;;43.50;;
19691;SDS011;42748;50.016;19.890;2022-11-20T00:26:22;109.20;;;43.33;;
19691;SDS011;42748;50.016;19.890;2022-11-20T00:28:51;121.07;;;45.50;;
19691;SDS011;42748;50.016;19.890;2022-11-20T00:31:19;124.77;;;46.27;;
19691;SDS011;42748;50.016;19.890;2022-11-20T00:33:47;115.90;;;44.87;;
19691;SDS011;42748;50.016;19.890;2022-11-20T00:36:15;120.53;;;45.17;;
19691;SDS011;42748;50.016;19.890;2022-11-20T00:38:53;121.37;;;45.90;;
19691;SDS011;42748;50.016;19.890;2022-11-20T00:41:22;120.23;;;46.07;;
19691;SDS011;42748;50.016;19.890;2022-11-20T00:43:51;120.97;;;46.17;;
19691;SDS011;42748;50.016;19.890;2022-11-20T00:46:20;115.77;;;45.20;;
19691;SDS011;42748;50.016;19.890;2022-11-20T00:48:48;123.73;;;47.63;;
19691;SDS011;42748;50.016;19.890;2022-11-20T00:51:17;127.77;;;46.83;;
19691;SDS011;42748;50.016;19.890;2022-11-20T00:53:45;119.73;;;46.90;;
19691;SDS011;42748;50.016;19.890;2022-11-20T00:56:14;127.47;;;44.90;;
19691;SDS011;42748;50.016;19.890;2022-11-20T00:58:44;121.63;;;44.90;;
19691;SDS011;42748;50.016;19.890;2022-11-20T01:01:13;116.00;;;43.50;;
19691;SDS011;42748;50.016;19.890;2022-11-20T01:03:43;122.90;;;45.00;;
19691;SDS011;42748;50.016;19.890;2022-11-20T01:06:19;120.50;;;45.27;;
19691;SDS011;42748;50.016;19.890;2022-11-20T01:08:58;117.70;;;45.00;;
19691;SDS011;42748;50.016;19.890;2022-11-20T01:11:29;124.63;;;44.33;;
19691;SDS011;42748;50.016;19.890;2022-11-20T01:13:58;114.87;;;43.50;;
19691;SDS011;42748;50.016;19.890;2022-11-20T01:16:28;123.47;;;45.23;;
19691;SDS011;42748;50.016;19.890;2022-11-20T01:19:01;133.70;;;46.67;;
19691;SDS011;42748;50.016;19.890;2022-11-20T01:21:31;127.73;;;47.47;;
19691;SDS011;42748;50.016;19.890;2022-11-20T01:24:01;131.50;;;48.43;;
19691;SDS011;42748;50.016;19.890;2022-11-20T01:26:32;133.03;;;47.77;;
19691;SDS011;42748;50.016;19.890;2022-11-20T01:29:01;131.20;;;48.90;;
19691;SDS011;42748;50.016;19.890;2022-11-20T01:31:31;123.83;;;45.33;;
19691;SDS011;42748;50.016;19.890;2022-11-20T01:34:06;126.83;;;46.57;;
19691;SDS011;42748;50.016;19.890;2022-11-20T01:36:36;123.53;;;45.50;;
19691;SDS011;42748;50.016;19.890;2022-11-20T01:39:09;133.70;;;48.07;;
19691;SDS011;42748;50.016;19.890;2022-11-20T01:41:38;125.73;;;45.87;;
19691;SDS011;42748;50.016;19.890;2022-11-20T01:47:14;123.87;;;46.30;;
19691;SDS011;42748;50.016;19.890;2022-11-20T01:49:48;135.17;;;46.77;;
19691;SDS011;42748;50.016;19.890;2022-11-20T01:52:27;135.93;;;47.93;;
19691;SDS011;42748;50.016;19.890;2022-11-20T01:55:07;128.20;;;46.90;;
19691;SDS011;42748;50.016;19.890;2022-11-20T01:57:44;132.63;;;47.53;;
19691;SDS011;42748;50.016;19.890;2022-11-20T02:00:15;128.97;;;46.23;;
19691;SDS011;42748;50.016;19.890;2022-11-20T02:02:47;127.17;;;45.67;;
19691;SDS011;42748;50.016;19.890;2022-11-20T02:05:20;132.50;;;47.57;;
19691;SDS011;42748;50.016;19.890;2022-11-20T02:08:09;129.23;;;46.20;;
19691;SDS011;42748;50.016;19.890;2022-11-20T02:10:37;125.50;;;46.53;;
19691;SDS011;42748;50.016;19.890;2022-11-20T02:13:04;119.17;;;45.53;;
19691;SDS011;42748;50.016;19.890;2022-11-20T02:15:50;119.77;;;45.10;;
19691;SDS011;42748;50.016;19.890;2022-11-20T02:18:18;124.27;;;47.07;;
19691;SDS011;42748;50.016;19.890;2022-11-20T02:20:48;133.07;;;48.37;;
19691;SDS011;42748;50.016;19.890;2022-11-20T02:23:39;137.30;;;49.60;;
19691;SDS011;42748;50.016;19.890;2022-11-20T02:26:22;135.53;;;48.07;;
19691;SDS011;42748;50.016;19.890;2022-11-20T02:28:50;128.20;;;46.90;;
19691;SDS011;42748;50.016;19.890;2022-11-20T02:31:17;125.00;;;46.13;;
19691;SDS011;42748;50.016;19.890;2022-11-20T02:33:44;126.57;;;47.03;;
19691;SDS011;42748;50.016;19.890;2022-11-20T02:36:11;122.00;;;46.27;;
19691;SDS011;42748;50.016;19.890;2022-11-20T02:38:41;124.33;;;46.83;;
19691;SDS011;42748;50.016;19.890;2022-11-20T02:41:09;119.23;;;46.10;;
19691;SDS011;42748;50.016;19.890;2022-11-20T02:43:36;129.57;;;46.27;;
19691;SDS011;42748;50.016;19.890;2022-11-20T02:46:03;122.47;;;46.30;;
19691;SDS011;42748;50.016;19.890;2022-11-20T02:48:33;120.43;;;46.13;;
19691;SDS011;42748;50.016;19.890;2022-11-20T02:51:00;125.00;;;44.30;;
19691;SDS011;42748;50.016;19.890;2022-11-20T02:53:27;132.23;;;48.20;;
19691;SDS011;42748;50.016;19.890;2022-11-20T02:55:55;123.43;;;44.63;;
19691;SDS011;42748;50.016;19.890;2022-11-20T02:58:22;125.23;;;45.83;;
19691;SDS011;42748;50.016;19.890;2022-11-20T03:00:49;118.17;;;45.80;;
19691;SDS011;42748;50.016;19.890;2022-11-20T03:03:16;129.40;;;46.37;;
19691;SDS011;42748;50.016;19.890;2022-11-20T03:05:43;129.70;;;47.47;;
19691;SDS011;42748;50.016;19.890;2022-11-20T03:08:10;134.57;;;47.23;;
19691;SDS011;42748;50.016;19.890;2022-11-20T03:10:37;131.43;;;47.70;;
19691;SDS011;42748;50.016;19.890;2022-11-20T03:13:04;125.77;;;47.27;;
19691;SDS011;42748;50.016;19.890;2022-11-20T03:15:31;135.63;;;47.87;;
19691;SDS011;42748;50.016;19.890;2022-11-20T03:17:58;141.80;;;50.47;;
19691;SDS011;42748;50.016;19.890;2022-11-20T03:20:25;137.17;;;48.43;;
19691;SDS011;42748;50.016;19.890;2022-11-20T03:22:53;135.77;;;47.47;;
19691;SDS011;42748;50.016;19.890;2022-11-20T03:25:21;136.00;;;48.30;;
19691;SDS011;42748;50.016;19.890;2022-11-20T03:27:48;131.10;;;46.90;;
19691;SDS011;42748;50.016;19.890;2022-11-20T03:30:15;144.10;;;48.33;;
19691;SDS011;42748;50.016;19.890;2022-11-20T03:32:42;129.03;;;46.40;;
19691;SDS011;42748;50.016;19.890;2022-11-20T03:35:09;143.93;;;48.20;;
19691;SDS011;42748;50.016;19.890;2022-11-20T03:37:36;133.33;;;47.77;;
19691;SDS011;42748;50.016;19.890;2022-11-20T03:40:03;127.73;;;48.17;;
19691;SDS011;42748;50.016;19.890;2022-11-20T03:42:30;137.37;;;47.13;;
19691;SDS011;42748;50.016;19.890;2022-11-20T03:45:14;134.40;;;46.47;;
19691;SDS011;42748;50.016;19.890;2022-11-20T03:47:43;132.57;;;45.07;;
19691;SDS011;42748;50.016;19.890;2022-11-20T03:50:11;128.73;;;46.23;;
19691;SDS011;42748;50.016;19.890;2022-11-20T03:52:40;122.90;;;45.60;;
19691;SDS011;42748;50.016;19.890;2022-11-20T03:55:09;128.30;;;47.63;;
19691;SDS011;42748;50.016;19.890;2022-11-20T03:57:37;134.13;;;48.17;;
19691;SDS011;42748;50.016;19.890;2022-11-20T04:00:04;144.53;;;50.00;;
19691;SDS011;42748;50.016;19.890;2022-11-20T04:02:32;140.20;;;48.67;;
19691;SDS011;42748;50.016;19.890;2022-11-20T04:04:59;148.43;;;52.40;;
19691;SDS011;42748;50.016;19.890;2022-11-20T04:07:26;150.73;;;52.73;;
19691;SDS011;42748;50.016;19.890;2022-11-20T04:09:53;148.10;;;52.23;;
19691;SDS011;42748;50.016;19.890;2022-11-20T04:12:20;138.70;;;49.97;;
19691;SDS011;42748;50.016;19.890;2022-11-20T04:14:47;135.50;;;48.20;;
19691;SDS011;42748;50.016;19.890;2022-11-20T04:17:15;141.20;;;49.80;;
19691;SDS011;42748;50.016;19.890;2022-11-20T04:19:42;153.57;;;53.27;;
19691;SDS011;42748;50.016;19.890;2022-11-20T04:22:09;142.23;;;50.23;;
19691;SDS011;42748;50.016;19.890;2022-11-20T04:24:38;144.97;;;49.17;;
19691;SDS011;42748;50.016;19.890;2022-11-20T04:27:05;136.93;;;49.50;;
19691;SDS011;42748;50.016;19.890;2022-11-20T04:29:32;135.83;;;49.80;;
19691;SDS011;42748;50.016;19.890;2022-11-20T04:31:59;146.23;;;53.40;;
19691;SDS011;42748;50.016;19.890;2022-11-20T04:34:25;140.60;;;51.00;;
19691;SDS011;42748;50.016;19.890;2022-11-20T04:36:53;141.87;;;51.03;;
19691;SDS011;42748;50.016;19.890;2022-11-20T04:39:19;134.47;;;49.83;;
19691;SDS011;42748;50.016;19.890;2022-11-20T04:41:47;142.07;;;49.77;;
19691;SDS011;42748;50.016;19.890;2022-11-20T04:44:14;141.43;;;51.23;;
19691;SDS011;42748;50.016;19.890;2022-11-20T04:46:41;143.63;;;49.97;;
19691;SDS011;42748;50.016;19.890;2022-11-20T04:49:10;146.47;;;51.57;;
19691;SDS011;42748;50.016;19.890;2022-11-20T04:51:37;153.10;;;53.40;;
19691;SDS011;42748;50.016;19.890;2022-11-20T04:54:04;136.17;;;50.23;;
19691;SDS011;42748;50.016;19.890;2022-11-20T04:56:31;138.80;;;50.93;;
19691;SDS011;42748;50.016;19.890;2022-11-20T04:59:01;146.37;;;50.83;;
19691;SDS011;42748;50.016;19.890;2022-11-20T05:01:29;145.07;;;50.17;;
19691;SDS011;42748;50.016;19.890;2022-11-20T05:03:56;144.47;;;50.97;;
19691;SDS011;42748;50.016;19.890;2022-11-20T05:06:23;143.13;;;52.93;;
19691;SDS011;42748;50.016;19.890;2022-11-20T05:08:51;141.83;;;49.67;;
19691;SDS011;42748;50.016;19.890;2022-11-20T05:11:19;145.87;;;50.10;;
19691;SDS011;42748;50.016;19.890;2022-11-20T05:13:47;142.53;;;50.83;;
19691;SDS011;42748;50.016;19.890;2022-11-20T05:16:17;140.27;;;48.33;;
19691;SDS011;42748;50.016;19.890;2022-11-20T05:18:46;132.70;;;49.10;;
19691;SDS011;42748;50.016;19.890;2022-11-20T05:21:13;140.60;;;49.70;;
19691;SDS011;42748;50.016;19.890;2022-11-20T05:23:41;143.93;;;49.67;;
19691;SDS011;42748;50.016;19.890;2022-11-20T05:26:12;145.77;;;50.93;;
19691;SDS011;42748;50.016;19.890;2022-11-20T05:28:47;145.83;;;52.50;;
19691;SDS011;42748;50.016;19.890;2022-11-20T05:31:19;142.67;;;50.30;;
19691;SDS011;42748;50.016;19.890;2022-11-20T05:33:54;141.57;;;51.27;;
19691;SDS011;42748;50.016;19.890;2022-11-20T05:36:22;142.00;;;50.90;;
19691;SDS011;42748;50.016;19.890;2022-11-20T05:38:49;140.87;;;50.17;;
19691;SDS011;42748;50.016;19.890;2022-11-20T05:41:19;142.47;;;50.70;;
19691;SDS011;42748;50.016;19.890;2022-11-20T05:43:47;140.83;;;48.23;;
19691;SDS011;42748;50.016;19.890;2022-11-20T05:46:16;140.67;;;49.63;;
19691;SDS011;42748;50.016;19.890;2022-11-20T05:48:53;133.27;;;46.77;;
19691;SDS011;42748;50.016;19.890;2022-11-20T05:51:20;141.40;;;45.83;;
19691;SDS011;42748;50.016;19.890;2022-11-20T05:53:47;136.90;;;48.60;;
19691;SDS011;42748;50.016;19.890;2022-11-20T05:56:18;127.27;;;46.30;;
19691;SDS011;42748;50.016;19.890;2022-11-20T05:58:47;128.73;;;45.57;;
19691;SDS011;42748;50.016;19.890;2022-11-20T06:01:21;131.30;;;46.60;;
19691;SDS011;42748;50.016;19.890;2022-11-20T06:03:50;130.63;;;46.23;;
19691;SDS011;42748;50.016;19.890;2022-11-20T06:06:18;146.07;;;47.97;;
19691;SDS011;42748;50.016;19.890;2022-11-20T06:08:46;133.00;;;48.23;;
19691;SDS011;42748;50.016;19.890;2022-11-20T06:11:13;147.53;;;50.97;;
19691;SDS011;42748;50.016;19.890;2022-11-20T06:13:41;143.77;;;49.70;;
19691;SDS011;42748;50.016;19.890;2022-11-20T06:16:10;133.87;;;49.97;;
19691;SDS011;42748;50.016;19.890;2022-11-20T06:18:38;155.77;;;51.53;;
19691;SDS011;42748;50.016;19.890;2022-11-20T06:21:06;142.43;;;51.50;;
19691;SDS011;42748;50.016;19.890;2022-11-20T06:23:34;150.97;;;50.07;;
19691;SDS011;42748;50.016;19.890;2022-11-20T06:26:02;147.40;;;51.13;;
19691;SDS011;42748;50.016;19.890;2022-11-20T06:28:49;137.33;;;48.03;;
19691;SDS011;42748;50.016;19.890;2022-11-20T06:31:18;140.27;;;50.37;;
19691;SDS011;42748;50.016;19.890;2022-11-20T06:33:47;150.13;;;51.83;;
19691;SDS011;42748;50.016;19.890;2022-11-20T06:36:15;138.00;;;47.37;;
19691;SDS011;42748;50.016;19.890;2022-11-20T06:38:44;156.30;;;50.97;;
19691;SDS011;42748;50.016;19.890;2022-11-20T06:41:13;144.13;;;50.03;;
19691;SDS011;42748;50.016;19.890;2022-11-20T06:43:42;151.90;;;52.67;;
19691;SDS011;42748;50.016;19.890;2022-11-20T06:46:10;149.27;;;50.70;;
19691;SDS011;42748;50.016;19.890;2022-11-20T06:48:38;151.87;;;51.90;;
19691;SDS011;42748;50.016;19.890;2022-11-20T06:51:05;136.60;;;50.70;;
19691;SDS011;42748;50.016;19.890;2022-11-20T06:53:34;144.67;;;52.43;;
19691;SDS011;42748;50.016;19.890;2022-11-20T06:56:02;139.10;;;51.07;;
19691;SDS011;42748;50.016;19.890;2022-11-20T06:58:30;140.80;;;51.63;;
19691;SDS011;42748;50.016;19.890;2022-11-20T07:00:58;143.73;;;49.97;;
19691;SDS011;42748;50.016;19.890;2022-11-20T07:03:30;141.43;;;48.23;;
19691;SDS011;42748;50.016;19.890;2022-11-20T07:05:58;143.87;;;51.40;;
19691;SDS011;42748;50.016;19.890;2022-11-20T07:08:26;141.90;;;48.77;;
19691;SDS011;42748;50.016;19.890;2022-11-20T07:10:56;139.03;;;51.40;;
19691;SDS011;42748;50.016;19.890;2022-11-20T07:13:26;148.57;;;52.20;;
19691;SDS011;42748;50.016;19.890;2022-11-20T07:15:53;143.20;;;49.97;;
19691;SDS011;42748;50.016;19.890;2022-11-20T07:18:21;163.37;;;53.47;;
19691;SDS011;42748;50.016;19.890;2022-11-20T07:20:48;181.47;;;58.37;;
19691;SDS011;42748;50.016;19.890;2022-11-20T07:23:15;184.57;;;56.53;;
19691;SDS011;42748;50.016;19.890;2022-11-20T07:25:42;193.07;;;59.00;;
19691;SDS011;42748;50.016;19.890;2022-11-20T07:28:09;177.73;;;57.03;;
19691;SDS011;42748;50.016;19.890;2022-11-20T07:30:36;184.90;;;58.50;;
19691;SDS011;42748;50.016;19.890;2022-11-20T07:33:04;168.77;;;56.70;;
19691;SDS011;42748;50.016;19.890;2022-11-20T07:35:31;172.30;;;54.73;;
19691;SDS011;42748;50.016;19.890;2022-11-20T07:37:58;177.27;;;55.93;;
19691;SDS011;42748;50.016;19.890;2022-11-20T07:40:25;159.73;;;53.10;;
19691;SDS011;42748;50.016;19.890;2022-11-20T07:42:53;161.77;;;54.50;;
19691;SDS011;42748;50.016;19.890;2022-11-20T07:45:22;158.57;;;53.93;;
19691;SDS011;42748;50.016;19.890;2022-11-20T07:47:50;160.17;;;53.90;;
19691;SDS011;42748;50.016;19.890;2022-11-20T07:50:18;175.30;;;57.33;;
19691;SDS011;42748;50.016;19.890;2022-11-20T07:52:45;162.90;;;54.73;;
19691;SDS011;42748;50.016;19.890;2022-11-20T07:55:13;159.27;;;56.07;;
19691;SDS011;42748;50.016;19.890;2022-11-20T07:57:40;172.57;;;55.80;;
19691;SDS011;42748;50.016;19.890;2022-11-20T08:00:08;190.80;;;62.63;;
19691;SDS011;42748;50.016;19.890;2022-11-20T08:02:40;186.50;;;60.50;;
19691;SDS011;42748;50.016;19.890;2022-11-20T08:05:10;183.33;;;61.80;;
19691;SDS011;42748;50.016;19.890;2022-11-20T08:07:38;200.47;;;63.03;;
19691;SDS011;42748;50.016;19.890;2022-11-20T08:10:06;206.13;;;64.57;;
19691;SDS011;42748;50.016;19.890;2022-11-20T08:12:34;209.33;;;64.47;;
19691;SDS011;42748;50.016;19.890;2022-11-20T08:15:20;205.87;;;63.23;;
19691;SDS011;42748;50.016;19.890;2022-11-20T08:17:47;196.73;;;62.77;;
19691;SDS011;42748;50.016;19.890;2022-11-20T08:20:34;206.40;;;61.97;;
19691;SDS011;42748;50.016;19.890;2022-11-20T08:23:03;214.73;;;63.80;;
19691;SDS011;42748;50.016;19.890;2022-11-20T08:25:32;231.47;;;68.17;;
19691;SDS011;42748;50.016;19.890;2022-11-20T08:28:01;233.77;;;69.50;;
19691;SDS011;42748;50.016;19.890;2022-11-20T08:30:45;241.53;;;70.63;;
19691;SDS011;42748;50.016;19.890;2022-11-20T08:33:12;252.73;;;72.23;;
19691;SDS011;42748;50.016;19.890;2022-11-20T08:35:39;279.37;;;77.57;;
19691;SDS011;42748;50.016;19.890;2022-11-20T08:38:08;266.07;;;77.37;;
19691;SDS011;42748;50.016;19.890;2022-11-20T08:40:35;281.60;;;81.43;;
19691;SDS011;42748;50.016;19.890;2022-11-20T08:43:02;290.17;;;80.97;;
19691;SDS011;42748;50.016;19.890;2022-11-20T08:45:29;301.50;;;84.47;;
19691;SDS011;42748;50.016;19.890;2022-11-20T08:48:00;307.93;;;82.87;;
19691;SDS011;42748;50.016;19.890;2022-11-20T08:50:29;292.10;;;79.97;;
19691;SDS011;42748;50.016;19.890;2022-11-20T08:53:05;307.93;;;88.13;;
19691;SDS011;42748;50.016;19.890;2022-11-20T08:55:32;276.83;;;81.33;;
19691;SDS011;42748;50.016;19.890;2022-11-20T08:58:05;296.60;;;87.80;;
19691;SDS011;42748;50.016;19.890;2022-11-20T09:00:32;287.90;;;83.67;;
19691;SDS011;42748;50.016;19.890;2022-11-20T09:03:00;272.17;;;81.23;;
19691;SDS011;42748;50.016;19.890;2022-11-20T09:05:28;277.70;;;83.40;;
19691;SDS011;42748;50.016;19.890;2022-11-20T09:07:58;297.63;;;87.43;;
19691;SDS011;42748;50.016;19.890;2022-11-20T09:10:25;265.00;;;81.23;;
19691;SDS011;42748;50.016;19.890;2022-11-20T09:12:53;269.90;;;86.03;;
19691;SDS011;42748;50.016;19.890;2022-11-20T09:15:22;247.30;;;76.73;;
19691;SDS011;42748;50.016;19.890;2022-11-20T09:17:50;249.67;;;75.33;;
19691;SDS011;42748;50.016;19.890;2022-11-20T09:20:22;249.10;;;73.03;;
19691;SDS011;42748;50.016;19.890;2022-11-20T09:22:49;220.37;;;74.13;;
19691;SDS011;42748;50.016;19.890;2022-11-20T09:25:16;236.63;;;74.90;;
19691;SDS011;42748;50.016;19.890;2022-11-20T09:27:44;248.30;;;76.20;;
19691;SDS011;42748;50.016;19.890;2022-11-20T09:30:13;234.90;;;76.60;;
19691;SDS011;42748;50.016;19.890;2022-11-20T09:32:44;239.97;;;74.60;;
19691;SDS011;42748;50.016;19.890;2022-11-20T09:35:11;233.30;;;73.90;;
19691;SDS011;42748;50.016;19.890;2022-11-20T09:37:38;240.07;;;74.37;;
19691;SDS011;42748;50.016;19.890;2022-11-20T09:40:05;239.13;;;76.13;;
19691;SDS011;42748;50.016;19.890;2022-11-20T09:56:02;227.47;;;72.33;;
19691;SDS011;42748;50.016;19.890;2022-11-20T09:58:32;238.37;;;71.57;;
19691;SDS011;42748;50.016;19.890;2022-11-20T10:03:50;236.60;;;76.67;;
19691;SDS011;42748;50.016;19.890;2022-11-20T10:06:41;241.23;;;73.40;;
19691;SDS011;42748;50.016;19.890;2022-11-20T10:09:52;233.37;;;73.13;;
19691;SDS011;42748;50.016;19.890;2022-11-20T10:17:55;226.63;;;72.57;;
19691;SDS011;42748;50.016;19.890;2022-11-20T10:26:04;240.07;;;73.43;;
19691;SDS011;42748;50.016;19.890;2022-11-20T10:31:31;232.40;;;74.17;;
19691;SDS011;42748;50.016;19.890;2022-11-20T10:34:05;234.27;;;72.47;;
19691;SDS011;42748;50.016;19.890;2022-11-20T10:37:01;231.33;;;74.60;;
19691;SDS011;42748;50.016;19.890;2022-11-20T10:39:42;230.33;;;73.17;;
19691;SDS011;42748;50.016;19.890;2022-11-20T10:42:30;228.50;;;71.30;;
19691;SDS011;42748;50.016;19.890;2022-11-20T10:45:11;213.50;;;69.83;;
19691;SDS011;42748;50.016;19.890;2022-11-20T10:47:46;225.23;;;72.70;;
19691;SDS011;42748;50.016;19.890;2022-11-20T10:50:18;231.27;;;74.00;;
19691;SDS011;42748;50.016;19.890;2022-11-20T10:53:03;231.33;;;70.67;;
19691;SDS011;42748;50.016;19.890;2022-11-20T10:55:52;227.57;;;73.13;;
19691;SDS011;42748;50.016;19.890;2022-11-20T11:01:18;230.80;;;71.40;;
19691;SDS011;42748;50.016;19.890;2022-11-20T11:03:48;219.63;;;72.63;;
19691;SDS011;42748;50.016;19.890;2022-11-20T11:06:34;222.10;;;71.70;;
19691;SDS011;42748;50.016;19.890;2022-11-20T11:09:14;216.17;;;70.40;;
19691;SDS011;42748;50.016;19.890;2022-11-20T11:11:46;217.77;;;71.50;;
19691;SDS011;42748;50.016;19.890;2022-11-20T11:14:14;216.30;;;71.03;;
19691;SDS011;42748;50.016;19.890;2022-11-20T11:16:54;185.00;;;66.23;;
19691;SDS011;42748;50.016;19.890;2022-11-20T11:19:22;189.73;;;63.90;;
19691;SDS011;42748;50.016;19.890;2022-11-20T11:21:51;178.17;;;65.97;;
19691;SDS011;42748;50.016;19.890;2022-11-20T11:24:27;188.33;;;64.87;;
19691;SDS011;42748;50.016;19.890;2022-11-20T11:27:12;176.67;;;63.80;;
19691;SDS011;42748;50.016;19.890;2022-11-20T11:29:43;177.53;;;62.50;;
19691;SDS011;42748;50.016;19.890;2022-11-20T11:32:12;185.80;;;66.20;;
19691;SDS011;42748;50.016;19.890;2022-11-20T11:34:41;184.00;;;62.77;;
19691;SDS011;42748;50.016;19.890;2022-11-20T11:37:16;179.73;;;63.43;;
19691;SDS011;42748;50.016;19.890;2022-11-20T11:39:46;174.23;;;62.77;;
19691;SDS011;42748;50.016;19.890;2022-11-20T11:42:29;176.27;;;61.43;;
19691;SDS011;42748;50.016;19.890;2022-11-20T11:44:58;177.50;;;64.27;;
19691;SDS011;42748;50.016;19.890;2022-11-20T11:52:49;183.50;;;63.53;;
19691;SDS011;42748;50.016;19.890;2022-11-20T11:55:40;177.53;;;62.23;;
19691;SDS011;42748;50.016;19.890;2022-11-20T12:00:41;194.03;;;66.03;;
19691;SDS011;42748;50.016;19.890;2022-11-20T12:03:27;188.00;;;64.63;;
19691;SDS011;42748;50.016;19.890;2022-11-20T12:06:04;182.63;;;64.30;;
19691;SDS011;42748;50.016;19.890;2022-11-20T12:11:28;184.37;;;64.77;;
19691;SDS011;42748;50.016;19.890;2022-11-20T12:14:09;188.43;;;62.47;;
19691;SDS011;42748;50.016;19.890;2022-11-20T12:16:50;176.77;;;63.37;;
19691;SDS011;42748;50.016;19.890;2022-11-20T12:19:19;165.37;;;60.87;;
19691;SDS011;42748;50.016;19.890;2022-11-20T12:27:40;169.53;;;61.03;;
19691;SDS011;42748;50.016;19.890;2022-11-20T12:30:26;163.73;;;62.07;;
19691;SDS011;42748;50.016;19.890;2022-11-20T12:38:45;182.73;;;66.20;;
19691;SDS011;42748;50.016;19.890;2022-11-20T13:06:58;180.70;;;64.30;;
19691;SDS011;42748;50.016;19.890;2022-11-20T13:09:28;173.77;;;62.93;;
19691;SDS011;42748;50.016;19.890;2022-11-20T13:12:20;172.73;;;63.40;;
19691;SDS011;42748;50.016;19.890;2022-11-20T13:15:06;171.27;;;60.80;;
19691;SDS011;42748;50.016;19.890;2022-11-20T13:18:00;181.10;;;63.80;;
19691;SDS011;42748;50.016;19.890;2022-11-20T13:20:29;184.87;;;67.13;;
19691;SDS011;42748;50.016;19.890;2022-11-20T13:22:57;180.63;;;65.80;;
19691;SDS011;42748;50.016;19.890;2022-11-20T13:28:01;186.17;;;65.70;;
19691;SDS011;42748;50.016;19.890;2022-11-20T13:30:35;179.17;;;66.03;;
19691;SDS011;42748;50.016;19.890;2022-11-20T13:33:07;182.03;;;66.33;;
19691;SDS011;42748;50.016;19.890;2022-11-20T13:36:02;181.40;;;64.63;;
19691;SDS011;42748;50.016;19.890;2022-11-20T13:38:42;188.83;;;66.93;;
19691;SDS011;42748;50.016;19.890;2022-11-20T13:43:59;194.83;;;65.87;;
19691;SDS011;42748;50.016;19.890;2022-11-20T13:46:47;195.23;;;68.80;;
19691;SDS011;42748;50.016;19.890;2022-11-20T13:55:26;200.80;;;70.10;;
19691;SDS011;42748;50.016;19.890;2022-11-20T13:58:07;194.83;;;67.17;;
19691;SDS011;42748;50.016;19.890;2022-11-20T14:00:46;195.67;;;68.87;;
19691;SDS011;42748;50.016;19.890;2022-11-20T14:03:21;198.87;;;67.67;;
19691;SDS011;42748;50.016;19.890;2022-11-20T14:06:21;202.13;;;70.23;;
19691;SDS011;42748;50.016;19.890;2022-11-20T14:08:59;193.03;;;68.83;;
19691;SDS011;42748;50.016;19.890;2022-11-20T14:11:29;192.23;;;70.33;;
19691;SDS011;42748;50.016;19.890;2022-11-20T14:16:39;192.73;;;70.03;;
19691;SDS011;42748;50.016;19.890;2022-11-20T14:27:41;190.93;;;67.93;;
19691;SDS011;42748;50.016;19.890;2022-11-20T14:30:15;198.27;;;70.53;;
19691;SDS011;42748;50.016;19.890;2022-11-20T14:32:45;199.13;;;70.93;;
19691;SDS011;42748;50.016;19.890;2022-11-20T14:35:23;184.67;;;68.07;;
19691;SDS011;42748;50.016;19.890;2022-11-20T14:37:55;191.70;;;70.93;;
19691;SDS011;42748;50.016;19.890;2022-11-20T14:40:30;191.13;;;68.03;;
19691;SDS011;42748;50.016;19.890;2022-11-20T14:43:01;198.43;;;69.43;;
19691;SDS011;42748;50.016;19.890;2022-11-20T14:45:41;197.50;;;69.27;;
19691;SDS011;42748;50.016;19.890;2022-11-20T14:48:10;198.33;;;71.13;;
19691;SDS011;42748;50.016;19.890;2022-11-20T14:50:38;191.27;;;68.67;;
19691;SDS011;42748;50.016;19.890;2022-11-20T14:53:05;197.77;;;67.80;;
19691;SDS011;42748;50.016;19.890;2022-11-20T14:55:34;190.77;;;68.17;;
19691;SDS011;42748;50.016;19.890;2022-11-20T14:58:04;206.47;;;73.03;;
19691;SDS011;42748;50.016;19.890;2022-11-20T15:03:33;222.37;;;70.80;;
19691;SDS011;42748;50.016;19.890;2022-11-20T15:06:05;205.90;;;69.90;;
19691;SDS011;42748;50.016;19.890;2022-11-20T15:08:34;212.07;;;73.30;;
19691;SDS011;42748;50.016;19.890;2022-11-20T15:11:01;197.77;;;67.03;;
19691;SDS011;42748;50.016;19.890;2022-11-20T15:15:56;220.90;;;72.60;;
19691;SDS011;42748;50.016;19.890;2022-11-20T16:10:19;291.00;;;90.47;;
19691;SDS011;42748;50.016;19.890;2022-11-20T16:12:46;304.10;;;96.37;;
19691;SDS011;42748;50.016;19.890;2022-11-20T16:15:32;306.10;;;101.07;;
19691;SDS011;42748;50.016;19.890;2022-11-20T16:18:15;323.10;;;108.57;;
19691;SDS011;42748;50.016;19.890;2022-11-20T16:20:45;375.00;;;122.53;;
19691;SDS011;42748;50.016;19.890;2022-11-20T16:23:13;367.67;;;121.57;;
19691;SDS011;42748;50.016;19.890;2022-11-20T16:25:42;361.17;;;120.77;;
19691;SDS011;42748;50.016;19.890;2022-11-20T16:28:10;349.20;;;117.77;;
19691;SDS011;42748;50.016;19.890;2022-11-20T16:30:44;309.03;;;108.10;;
19691;SDS011;42748;50.016;19.890;2022-11-20T16:33:12;294.30;;;101.07;;
19691;SDS011;42748;50.016;19.890;2022-11-20T16:35:41;293.10;;;101.73;;
19691;SDS011;42748;50.016;19.890;2022-11-20T16:38:08;276.07;;;96.77;;
19691;SDS011;42748;50.016;19.890;2022-11-20T16:40:35;273.87;;;94.77;;
19691;SDS011;42748;50.016;19.890;2022-11-20T16:43:10;263.77;;;92.87;;
19691;SDS011;42748;50.016;19.890;2022-11-20T16:45:39;257.80;;;91.80;;
19691;SDS011;42748;50.016;19.890;2022-11-20T16:48:14;262.83;;;93.00;;
19691;SDS011;42748;50.016;19.890;2022-11-20T16:50:49;249.27;;;90.57;;
19691;SDS011;42748;50.016;19.890;2022-11-20T16:53:21;256.20;;;92.00;;
19691;SDS011;42748;50.016;19.890;2022-11-20T16:55:48;245.60;;;88.50;;
19691;SDS011;42748;50.016;19.890;2022-11-20T16:58:15;249.97;;;88.50;;
19691;SDS011;42748;50.016;19.890;2022-11-20T17:00:43;246.30;;;86.03;;
19691;SDS011;42748;50.016;19.890;2022-11-20T17:03:17;246.67;;;90.83;;